createdAt,value
2019-04-26T00:01:44.589Z,2.40
2019-04-26T00:04:14.080Z,2.30
2019-04-26T00:06:42.435Z,2.30
2019-04-26T00:09:27.120Z,2.30
2019-04-26T00:12:14.335Z,2.33
2019-04-26T00:15:04.324Z,2.30
2019-04-26T00:17:51.476Z,2.30
2019-04-26T00:20:19.151Z,2.00
2019-04-26T00:22:46.758Z,2.40
2019-04-26T00:25:14.658Z,2.10
2019-04-26T00:27:42.173Z,2.40
2019-04-26T00:30:10.692Z,2.20
2019-04-26T00:32:39.117Z,2.07
2019-04-26T00:35:06.817Z,2.13
2019-04-26T00:37:34.315Z,2.00
2019-04-26T00:40:01.816Z,2.20
2019-04-26T00:42:30.404Z,2.10
2019-04-26T00:44:57.949Z,2.20
2019-04-26T00:47:26.655Z,2.00
2019-04-26T00:49:54.663Z,2.10
2019-04-26T00:52:23.628Z,2.00
2019-04-26T00:54:51.512Z,1.90
2019-04-26T00:57:20.312Z,2.10
2019-04-26T00:59:48.817Z,2.10
2019-04-26T01:02:22.750Z,2.00
2019-04-26T01:04:50.403Z,2.30
2019-04-26T01:07:17.803Z,2.20
2019-04-26T01:09:45.271Z,2.10
2019-04-26T01:12:12.664Z,2.10
2019-04-26T01:14:40.068Z,2.27
2019-04-26T01:17:07.508Z,2.00
2019-04-26T01:19:37.177Z,2.00
2019-04-26T01:22:08.528Z,2.67
2019-04-26T01:24:39.676Z,2.10
2019-04-26T01:27:08.290Z,2.20
2019-04-26T01:29:37.022Z,2.10
2019-04-26T01:32:10.746Z,2.00
2019-04-26T01:37:26.739Z,2.10
2019-04-26T01:40:00.424Z,2.20
2019-04-26T01:42:40.709Z,2.37
2019-04-26T01:45:28.243Z,2.40
2019-04-26T01:48:00.266Z,2.30
2019-04-26T01:50:31.635Z,2.30
2019-04-26T01:53:01.125Z,2.20
2019-04-26T01:55:31.259Z,2.20
2019-04-26T01:58:02.491Z,2.20
2019-04-26T02:00:48.340Z,2.30
2019-04-26T02:03:23.868Z,2.30
2019-04-26T02:05:52.714Z,2.30
2019-04-26T02:08:20.081Z,2.10
2019-04-26T02:10:47.606Z,2.40
2019-04-26T02:13:15.304Z,2.33
2019-04-26T02:15:42.888Z,2.07
2019-04-26T02:18:10.642Z,2.40
2019-04-26T02:21:14.065Z,2.20
2019-04-26T02:23:53.590Z,2.10
2019-04-26T02:26:38.314Z,2.20
2019-04-26T02:29:10.593Z,2.20
2019-04-26T02:31:41.579Z,2.20
2019-04-26T02:34:10.090Z,2.20
2019-04-26T02:36:56.002Z,2.10
2019-04-26T02:39:19.971Z,2.30
2019-04-26T02:41:50.891Z,2.20
2019-04-26T02:44:22.161Z,2.10
2019-04-26T02:47:20.476Z,2.20
2019-04-26T02:49:51.751Z,2.40
2019-04-26T02:52:45.185Z,2.40
2019-04-26T02:55:41.796Z,2.30
2019-04-26T02:58:04.817Z,2.00
2019-04-26T03:00:33.958Z,2.10
2019-04-26T03:03:06.068Z,2.13
2019-04-26T03:05:37.645Z,2.30
2019-04-26T03:08:14.253Z,2.20
2019-04-26T03:11:06.633Z,2.30
2019-04-26T03:14:03.052Z,2.30
2019-04-26T03:16:53.642Z,2.40
2019-04-26T03:19:50.509Z,2.40
2019-04-26T03:22:55.265Z,2.30
2019-04-26T03:26:06.117Z,2.10
2019-04-26T03:28:41.370Z,2.47
2019-04-26T03:31:27.069Z,2.30
2019-04-26T03:34:25.637Z,2.53
2019-04-26T03:37:25.279Z,2.30
2019-04-26T03:40:09.143Z,2.50
2019-04-26T03:43:12.296Z,2.37
2019-04-26T03:46:02.454Z,2.40
2019-04-26T03:48:52.413Z,2.40
2019-04-26T03:51:46.445Z,2.60
2019-04-26T03:54:18.646Z,2.40
2019-04-26T03:57:13.239Z,2.70
2019-04-26T04:00:03.002Z,2.23
2019-04-26T04:02:56.031Z,2.47
2019-04-26T04:05:35.984Z,2.23
2019-04-26T04:08:27.644Z,2.37
2019-04-26T04:11:01.214Z,2.40
2019-04-26T04:13:50.876Z,2.40
2019-04-26T04:16:48.920Z,2.30
2019-04-26T04:20:14.853Z,2.40
2019-04-26T04:22:47.926Z,2.50
2019-04-26T04:25:24.398Z,2.43
2019-04-26T04:28:12.028Z,2.40
2019-04-26T04:31:14.746Z,2.30
2019-04-26T04:34:00.487Z,2.37
2019-04-26T04:36:51.544Z,2.03
2019-04-26T04:39:32.257Z,2.30
2019-04-26T04:42:32.011Z,2.30
2019-04-26T04:45:34.078Z,2.10
2019-04-26T04:48:35.340Z,2.60
2019-04-26T04:51:51.651Z,2.30
2019-04-26T04:54:27.816Z,2.20
2019-04-26T04:57:20.367Z,2.30
2019-04-26T05:00:06.869Z,2.20
2019-04-26T05:03:00.739Z,2.40
2019-04-26T05:05:51.857Z,2.27
2019-04-26T05:08:51.231Z,2.20
2019-04-26T05:11:26.175Z,2.40
2019-04-26T05:14:03.381Z,2.33
2019-04-26T05:17:09.521Z,2.67
2019-04-26T05:20:11.231Z,2.30
2019-04-26T05:23:11.085Z,2.27
2019-04-26T05:26:26.465Z,2.30
2019-04-26T05:29:36.687Z,2.13
2019-04-26T05:32:52.552Z,2.20
2019-04-26T05:35:44.291Z,2.30
2019-04-26T05:38:53.240Z,2.57
2019-04-26T05:41:42.891Z,2.63
2019-04-26T05:44:23.987Z,2.10
2019-04-26T05:47:42.084Z,2.40
2019-04-26T05:51:20.493Z,2.40
2019-04-26T05:54:51.138Z,2.40
2019-04-26T05:58:05.769Z,2.40
2019-04-26T06:01:15.853Z,2.20
2019-04-26T06:04:12.490Z,2.43
2019-04-26T06:06:53.622Z,2.23
2019-04-26T06:09:59.454Z,2.60
2019-04-26T06:12:44.704Z,2.10
2019-04-26T06:15:41.318Z,2.40
2019-04-26T06:18:36.966Z,2.50
2019-04-26T06:21:18.787Z,2.37
2019-04-26T06:24:05.296Z,2.50
2019-04-26T06:27:23.452Z,2.30
2019-04-26T06:30:01.244Z,2.50
2019-04-26T06:32:35.653Z,2.60
2019-04-26T06:35:15.099Z,2.10
2019-04-26T06:38:06.264Z,2.27
2019-04-26T06:40:53.479Z,2.40
2019-04-26T06:43:50.276Z,2.80
2019-04-26T06:47:07.288Z,2.50
2019-04-26T06:50:34.340Z,2.43
2019-04-26T06:53:35.338Z,2.60
2019-04-26T06:56:29.331Z,2.43
2019-04-26T06:59:42.490Z,2.50
2019-04-26T07:02:26.542Z,2.80
2019-04-26T07:05:06.955Z,2.70
2019-04-26T07:07:59.352Z,2.40
2019-04-26T07:10:56.357Z,2.50
2019-04-26T07:14:09.021Z,2.60
2019-04-26T07:17:00.737Z,2.50
2019-04-26T07:19:54.676Z,2.60
2019-04-26T07:22:57.500Z,2.73
2019-04-26T07:26:02.317Z,2.50
2019-04-26T07:28:48.343Z,2.90
2019-04-26T07:31:47.063Z,2.60
2019-04-26T07:38:14.381Z,2.60
2019-04-26T07:45:16.617Z,2.23
2019-04-26T07:48:18.378Z,3.03
2019-04-26T07:51:33.047Z,2.73
2019-04-26T07:54:38.254Z,3.13
2019-04-26T07:57:38.477Z,2.80
2019-04-26T08:00:20.398Z,2.40
2019-04-26T08:03:22.592Z,2.60
2019-04-26T08:06:01.666Z,2.70
2019-04-26T08:08:38.267Z,2.50
2019-04-26T08:11:15.867Z,2.53
2019-04-26T08:14:06.297Z,2.60
2019-04-26T08:16:50.509Z,2.50
2019-04-26T08:19:20.956Z,2.60
2019-04-26T08:21:51.092Z,2.53
2019-04-26T08:24:22.748Z,2.60
2019-04-26T08:27:13.566Z,2.40
2019-04-26T08:29:41.899Z,2.70
2019-04-26T08:32:17.316Z,2.70
2019-04-26T08:34:50.230Z,2.50
2019-04-26T08:37:43.716Z,2.60
2019-04-26T08:40:16.402Z,2.80
2019-04-26T08:42:53.409Z,2.60
2019-04-26T08:46:01.800Z,2.80
2019-04-26T08:48:27.766Z,2.50
2019-04-26T08:50:56.523Z,2.30
2019-04-26T08:53:25.527Z,2.43
2019-04-26T08:55:56.680Z,2.50
2019-04-26T08:58:26.996Z,2.50
2019-04-26T09:01:23.117Z,2.30
2019-04-26T09:03:57.661Z,2.20
2019-04-26T09:06:36.887Z,2.40
2019-04-26T09:09:18.167Z,2.70
2019-04-26T09:11:59.094Z,2.60
2019-04-26T09:14:19.310Z,2.50
2019-04-26T09:16:50.461Z,2.60
2019-04-26T09:19:18.118Z,2.40
2019-04-26T09:21:52.128Z,2.50
2019-04-26T09:24:27.454Z,2.70
2019-04-26T09:27:11.805Z,2.30
2019-04-26T09:29:49.535Z,2.30
2019-04-26T09:32:20.217Z,2.40
2019-04-26T09:34:48.248Z,2.60
2019-04-26T09:37:15.729Z,2.60
2019-04-26T09:39:43.446Z,2.63
2019-04-26T09:42:20.642Z,2.80
2019-04-26T09:45:08.520Z,2.77
2019-04-26T09:47:41.637Z,2.90
2019-04-26T09:50:34.574Z,2.70
2019-04-26T09:53:02.031Z,2.60
2019-04-26T09:55:35.720Z,2.77
2019-04-26T09:57:58.747Z,2.67
2019-04-26T10:00:28.586Z,2.80
2019-04-26T10:02:56.684Z,2.70
2019-04-26T10:05:24.166Z,3.00
2019-04-26T10:07:51.881Z,3.00
2019-04-26T10:10:26.315Z,2.70
2019-04-26T10:13:07.206Z,2.70
2019-04-26T10:15:51.519Z,2.60
2019-04-26T10:18:20.461Z,2.63
2019-04-26T10:20:48.229Z,2.70
2019-04-26T10:23:15.733Z,2.53
2019-04-26T10:25:43.148Z,2.60
2019-04-26T10:28:11.768Z,2.60
2019-04-26T10:30:42.350Z,2.40
2019-04-26T10:33:09.604Z,2.40
2019-04-26T10:35:37.133Z,2.30
2019-04-26T10:38:05.037Z,2.47
2019-04-26T10:40:35.599Z,2.40
2019-04-26T10:43:01.841Z,2.40
2019-04-26T10:45:29.419Z,2.60
2019-04-26T10:47:56.961Z,2.57
2019-04-26T10:50:24.454Z,2.40
2019-04-26T10:52:58.612Z,2.40
2019-04-26T10:55:46.583Z,2.30
2019-04-26T10:58:24.550Z,2.30
2019-04-26T11:00:54.129Z,2.30
2019-04-26T11:03:24.435Z,2.20
2019-04-26T11:05:54.010Z,2.27
2019-04-26T11:08:21.225Z,2.20
2019-04-26T11:10:49.128Z,2.40
2019-04-26T11:13:17.679Z,2.00
2019-04-26T11:16:08.957Z,2.13
2019-04-26T11:18:36.599Z,2.10
2019-04-26T11:21:04.552Z,2.00
2019-04-26T11:23:41.060Z,2.00
2019-04-26T11:26:06.533Z,1.90
2019-04-26T11:28:34.022Z,2.10
2019-04-26T11:31:01.594Z,2.10
2019-04-26T11:33:31.985Z,1.90
2019-04-26T11:36:03.285Z,2.10
2019-04-26T11:38:32.658Z,2.10
2019-04-26T11:41:06.428Z,2.00
2019-04-26T11:43:29.501Z,1.90
2019-04-26T11:46:04.239Z,1.90
2019-04-26T11:48:29.337Z,1.90
2019-04-26T11:50:55.583Z,1.87
2019-04-26T11:53:22.967Z,1.60
2019-04-26T11:55:50.478Z,1.80
2019-04-26T11:58:22.341Z,1.60
2019-04-26T12:00:52.918Z,2.00
2019-04-26T12:03:21.157Z,2.10
2019-04-26T12:06:18.348Z,2.00
2019-04-26T12:08:48.443Z,2.00
2019-04-26T12:11:18.467Z,1.90
2019-04-26T12:13:45.246Z,1.90
2019-04-26T12:16:18.868Z,1.80
2019-04-26T12:18:45.736Z,1.90
2019-04-26T12:21:13.150Z,1.90
2019-04-26T12:23:40.583Z,1.70
2019-04-26T12:26:08.093Z,2.00
2019-04-26T12:28:36.358Z,1.90
2019-04-26T12:31:31.742Z,1.80
2019-04-26T12:38:16.791Z,1.90
2019-04-26T12:44:05.080Z,1.90
2019-04-26T12:50:22.288Z,1.80
2019-04-26T12:53:49.918Z,1.70
2019-04-26T12:59:51.281Z,1.77
2019-04-26T13:03:20.938Z,1.60
2019-04-26T13:06:08.520Z,1.80
2019-04-26T13:09:26.584Z,2.00
2019-04-26T13:12:29.849Z,1.80
2019-04-26T13:18:58.363Z,2.00
2019-04-26T13:21:58.963Z,1.83
2019-04-26T13:24:55.487Z,1.90
2019-04-26T13:27:20.546Z,1.90
2019-04-26T13:29:49.375Z,1.97
2019-04-26T13:32:17.471Z,1.93
2019-04-26T13:34:44.977Z,1.80
2019-04-26T13:37:12.415Z,1.80
2019-04-26T13:39:39.992Z,1.77
2019-04-26T13:42:09.538Z,1.87
2019-04-26T13:44:56.842Z,1.70
2019-04-26T13:47:55.907Z,1.80
2019-04-26T13:50:34.247Z,1.93
2019-04-26T13:53:01.762Z,2.00
2019-04-26T13:55:30.443Z,1.90
2019-04-26T13:57:58.050Z,1.80
2019-04-26T14:00:30.136Z,1.90
2019-04-26T14:02:57.757Z,1.90
2019-04-26T14:05:25.171Z,1.70
2019-04-26T14:07:52.563Z,1.80
2019-04-26T14:10:20.013Z,1.90
2019-04-26T14:12:49.988Z,1.80
2019-04-26T14:15:16.847Z,1.87
2019-04-26T14:17:44.291Z,1.90
2019-04-26T14:20:12.266Z,1.60
2019-04-26T14:22:46.641Z,1.90
2019-04-26T14:25:16.889Z,1.90
2019-04-26T14:27:50.057Z,1.90
2019-04-26T14:30:18.448Z,1.90
2019-04-26T14:32:45.977Z,2.00
2019-04-26T14:35:15.607Z,1.90
2019-04-26T14:37:45.383Z,1.70
2019-04-26T14:40:17.043Z,1.80
2019-04-26T14:42:46.085Z,1.80
2019-04-26T14:45:22.699Z,1.90
2019-04-26T14:47:47.175Z,1.80
2019-04-26T14:50:14.082Z,1.70
2019-04-26T14:52:38.846Z,1.70
2019-04-26T14:55:06.252Z,1.80
2019-04-26T14:57:36.577Z,1.70
2019-04-26T15:00:07.673Z,2.00
2019-04-26T15:02:55.817Z,2.00
2019-04-26T15:05:33.440Z,1.90
2019-04-26T15:08:03.735Z,2.10
2019-04-26T15:10:44.358Z,2.00
2019-04-26T15:13:14.863Z,3.33
2019-04-26T15:15:35.159Z,3.50
2019-04-26T15:18:03.168Z,2.27
2019-04-26T15:20:32.620Z,2.13
2019-04-26T15:22:59.989Z,2.00
2019-04-26T15:25:27.417Z,2.20
2019-04-26T15:27:54.819Z,2.10
2019-04-26T15:30:23.892Z,2.23
2019-04-26T15:32:52.897Z,2.10
2019-04-26T15:35:20.652Z,2.30
2019-04-26T15:37:48.100Z,2.30
2019-04-26T15:40:47.046Z,2.20
2019-04-26T15:43:23.825Z,2.40
2019-04-26T15:46:12.329Z,2.30
2019-04-26T15:48:50.261Z,2.80
2019-04-26T15:51:20.144Z,2.40
2019-04-26T15:53:48.715Z,2.50
2019-04-26T15:56:17.834Z,2.47
2019-04-26T15:58:48.991Z,2.40
2019-04-26T16:01:14.733Z,2.20
2019-04-26T16:03:44.557Z,2.50
2019-04-26T16:06:14.494Z,2.60
2019-04-26T16:08:43.789Z,2.40
2019-04-26T16:11:12.402Z,2.13
2019-04-26T16:13:40.012Z,2.33
2019-04-26T16:19:47.827Z,2.30
2019-04-26T16:22:15.309Z,2.20
2019-04-26T16:24:42.949Z,2.40
2019-04-26T16:27:12.526Z,2.40
2019-04-26T16:29:59.638Z,2.30
2019-04-26T16:32:47.384Z,2.30
2019-04-26T16:35:18.209Z,2.40
2019-04-26T16:37:45.471Z,2.53
2019-04-26T16:40:13.932Z,2.40
2019-04-26T16:42:41.557Z,2.33
2019-04-26T16:45:09.186Z,2.30
2019-04-26T16:47:45.030Z,2.10
2019-04-26T16:50:07.287Z,2.03
2019-04-26T16:52:42.371Z,2.20
2019-04-26T16:55:04.723Z,2.20
2019-04-26T16:57:33.898Z,2.30
2019-04-26T17:00:04.225Z,2.10
2019-04-26T17:02:36.784Z,2.20
2019-04-26T17:05:04.540Z,2.00
2019-04-26T17:07:30.739Z,1.90
2019-04-26T17:09:59.795Z,2.20
2019-04-26T17:12:27.493Z,2.00
2019-04-26T17:14:54.924Z,2.00
2019-04-26T17:17:22.516Z,2.03
2019-04-26T17:19:49.971Z,2.20
2019-04-26T17:22:44.736Z,2.00
2019-04-26T17:25:28.719Z,2.00
2019-04-26T17:27:56.245Z,2.30
2019-04-26T17:30:26.418Z,2.00
2019-04-26T17:32:55.356Z,2.17
2019-04-26T17:35:22.867Z,2.20
2019-04-26T17:37:50.525Z,2.20
2019-04-26T17:40:18.127Z,2.40
2019-04-26T17:42:45.650Z,2.50
2019-04-26T17:45:13.182Z,2.20
2019-04-26T17:47:42.448Z,2.13
2019-04-26T17:50:11.340Z,2.00
2019-04-26T17:52:38.970Z,2.33
2019-04-26T17:55:11.921Z,1.97
2019-04-26T17:57:42.337Z,2.30
2019-04-26T18:00:13.353Z,2.17
2019-04-26T18:02:44.668Z,2.30
2019-04-26T18:05:08.112Z,2.20
2019-04-26T18:07:43.272Z,2.30
2019-04-26T18:10:07.531Z,2.20
2019-04-26T18:12:39.457Z,2.40
2019-04-26T18:15:09.368Z,2.77
2019-04-26T18:18:04.055Z,3.20
2019-04-26T18:20:49.720Z,2.40
2019-04-26T18:23:18.774Z,2.10
2019-04-26T18:25:46.483Z,2.00
2019-04-26T18:28:15.914Z,2.10
2019-04-26T18:30:46.238Z,2.00
2019-04-26T18:33:13.485Z,2.20
2019-04-26T18:35:43.463Z,2.20
2019-04-26T18:38:12.575Z,2.40
2019-04-26T18:40:58.609Z,2.27
2019-04-26T18:43:12.570Z,2.50
2019-04-26T18:45:38.355Z,2.20
2019-04-26T18:51:56.602Z,2.37
2019-04-26T18:54:29.373Z,2.10
2019-04-26T18:57:03.192Z,2.30
2019-04-26T18:59:36.427Z,3.73
2019-04-26T19:02:04.227Z,3.47
2019-04-26T19:04:33.847Z,2.53
2019-04-26T19:07:31.915Z,2.30
2019-04-26T19:09:59.213Z,2.30
2019-04-26T19:12:36.467Z,2.10
2019-04-26T19:15:26.649Z,2.30
2019-04-26T19:18:44.790Z,2.40
2019-04-26T19:21:16.565Z,2.47
2019-04-26T19:23:46.973Z,2.70
2019-04-26T19:35:12.297Z,2.40
2019-04-26T19:37:40.300Z,2.30
2019-04-26T19:40:12.393Z,2.60
2019-04-26T19:43:28.112Z,2.67
2019-04-26T19:49:36.669Z,2.27
2019-04-26T19:52:27.315Z,2.50
2019-04-26T19:55:19.010Z,2.40
2019-04-26T19:58:20.477Z,2.20
2019-04-26T20:00:54.713Z,2.50
2019-04-26T20:03:32.088Z,2.50
2019-04-26T20:08:54.981Z,2.10
2019-04-26T20:11:22.463Z,2.30
2019-04-26T20:13:51.796Z,2.30
2019-04-26T20:16:19.161Z,2.30
2019-04-26T20:18:49.329Z,2.40
2019-04-26T20:29:47.240Z,2.30
2019-04-26T20:44:10.041Z,2.30
2019-04-26T20:47:31.904Z,2.30
2019-04-26T20:50:21.791Z,2.37
2019-04-26T20:53:08.374Z,2.40
2019-04-26T20:55:35.741Z,2.40
2019-04-26T20:58:05.748Z,2.50
2019-04-26T21:00:36.581Z,2.20
2019-04-26T21:03:05.942Z,2.40
2019-04-26T21:05:45.053Z,2.30
2019-04-26T21:08:03.425Z,2.60
2019-04-26T21:10:30.258Z,2.50
2019-04-26T21:12:57.743Z,2.50
2019-04-26T21:15:25.229Z,2.53
2019-04-26T21:17:56.538Z,2.30
2019-04-26T21:20:21.972Z,2.50
2019-04-26T21:22:49.338Z,2.10
2019-04-26T21:25:32.482Z,2.40
2019-04-26T21:28:25.442Z,2.20
2019-04-26T21:31:12.580Z,2.30
2019-04-26T21:33:44.314Z,5.17
2019-04-26T21:36:40.531Z,3.30
2019-04-26T21:39:44.155Z,2.40
2019-04-26T21:42:10.677Z,2.40
2019-04-26T21:44:38.184Z,2.20
2019-04-26T21:47:07.476Z,2.20
2019-04-26T21:49:38.018Z,2.30
2019-04-26T21:52:04.544Z,2.40
2019-04-26T21:54:33.012Z,2.37
2019-04-26T21:57:00.690Z,2.37
2019-04-26T21:59:28.195Z,2.30
2019-04-26T22:01:59.215Z,2.27
2019-04-26T22:04:28.711Z,2.20
2019-04-26T22:06:55.673Z,2.20
2019-04-26T22:09:43.068Z,2.30
2019-04-26T22:12:13.577Z,2.50
2019-04-26T22:14:43.075Z,2.30
2019-04-26T22:17:40.426Z,2.27
2019-04-26T22:20:24.039Z,2.10
2019-04-26T22:23:16.428Z,2.30
2019-04-26T22:25:45.845Z,2.10
2019-04-26T22:28:13.236Z,2.30
2019-04-26T22:30:41.074Z,2.20
2019-04-26T22:33:08.519Z,2.30
2019-04-26T22:35:35.931Z,2.37
2019-04-26T22:38:04.012Z,2.20
2019-04-26T22:40:33.429Z,2.10
2019-04-26T22:43:17.939Z,2.50
2019-04-26T22:45:53.927Z,2.20
2019-04-26T22:48:31.189Z,2.30
2019-04-26T22:50:59.603Z,2.30
2019-04-26T22:53:27.535Z,2.27
2019-04-26T22:55:57.646Z,2.20
2019-04-26T22:58:25.463Z,2.20
2019-04-26T23:00:53.818Z,2.10
2019-04-26T23:03:21.189Z,2.23
2019-04-26T23:05:48.591Z,2.00
2019-04-26T23:08:16.041Z,2.00
2019-04-26T23:10:46.815Z,2.00
2019-04-26T23:13:23.231Z,2.10
2019-04-26T23:16:11.586Z,2.00
2019-04-26T23:19:15.323Z,2.10
2019-04-26T23:21:52.880Z,2.10
2019-04-26T23:24:17.630Z,2.00
2019-04-26T23:26:45.227Z,2.10
2019-04-26T23:29:16.279Z,2.30
2019-04-26T23:31:43.123Z,2.10
2019-04-26T23:34:11.041Z,2.10
2019-04-26T23:36:38.460Z,2.13
2019-04-26T23:39:07.585Z,2.20
2019-04-26T23:41:37.617Z,2.30
2019-04-26T23:44:06.788Z,2.20
2019-04-26T23:46:34.172Z,2.20
2019-04-26T23:49:03.022Z,2.07
2019-04-26T23:51:30.543Z,2.10
2019-04-26T23:53:57.989Z,2.13
2019-04-26T23:56:25.486Z,2.10
2019-04-26T23:58:53.188Z,2.10
